Riverside, Arkansas
Current Conditions -  °F | °C
As of 5:56 PM on Thursday 18 Dec 2014 (Local Time) from KM19 Reporting Station
Light Rain Light Rain  
Wind Chill: 42°   Ceiling: 1400
Heat Index: 42°   Visibility: 0.75mi
Dew Point: 38°   Wind: 3mph
Humidity: 86%   Direction: 70°ENE
Pressure: 30.23"   Gusts: NA
Location:  35.2139°N, 91.1509°W
Report Text: KM19 182356Z AUTO 07003KT 3/4SM -RA BR OVC014 06/03 A3023 RMK AO2 53008 60000 T00550033 10055 20044 RAB40 P0000 SLP237
Loading
Personal Weather Stations






























Interactive Weather Map New forecast layout! Learn more

10-Day Weather Forecast

Advertisements
Track Severe Weather on mobile